createdAt,value
2023-02-13T00:02:24.951Z,20.23
2023-02-13T00:04:51.297Z,20.22
2023-02-13T00:07:17.622Z,20.23
2023-02-13T00:09:43.950Z,20.22
2023-02-13T00:12:10.260Z,20.22
2023-02-13T00:14:37.061Z,20.23
2023-02-13T00:17:03.380Z,20.21
2023-02-13T00:19:29.715Z,20.20
2023-02-13T00:21:56.051Z,20.20
2023-02-13T00:24:22.377Z,20.19
2023-02-13T00:26:48.704Z,20.19
2023-02-13T00:29:15.037Z,20.18
2023-02-13T00:31:41.562Z,20.18
2023-02-13T00:34:07.959Z,20.17
2023-02-13T00:36:34.795Z,20.18
2023-02-13T00:39:01.140Z,20.17
2023-02-13T00:41:27.484Z,20.15
2023-02-13T00:43:53.823Z,20.16
2023-02-13T00:46:20.582Z,20.16
2023-02-13T00:48:46.971Z,20.16
2023-02-13T00:51:13.308Z,20.15
2023-02-13T00:53:39.654Z,20.13
2023-02-13T00:56:06.268Z,20.13
2023-02-13T00:58:32.660Z,20.13
2023-02-13T01:00:59.459Z,20.12
2023-02-13T01:03:26.230Z,20.13
2023-02-13T01:05:52.571Z,20.12
2023-02-13T01:08:19.208Z,20.12
2023-02-13T01:10:46.949Z,20.11
2023-02-13T01:13:13.705Z,20.11
2023-02-13T01:15:40.063Z,20.11
2023-02-13T01:18:06.439Z,20.09
2023-02-13T01:20:33.203Z,20.09
2023-02-13T01:22:59.578Z,20.09
2023-02-13T01:25:25.966Z,20.08
2023-02-13T01:27:52.308Z,20.08
2023-02-13T01:30:18.725Z,20.08
2023-02-13T01:32:45.331Z,20.07
2023-02-13T01:35:13.290Z,20.05
2023-02-13T01:37:39.645Z,20.06
2023-02-13T01:40:06.643Z,20.06
2023-02-13T01:42:33.450Z,20.06
2023-02-13T01:45:00.439Z,20.05
2023-02-13T01:47:37.887Z,20.04
2023-02-13T01:50:11.387Z,20.04
2023-02-13T01:52:38.537Z,20.04
2023-02-13T01:55:04.927Z,20.02
2023-02-13T01:57:31.531Z,20.03
2023-02-13T02:00:00.059Z,20.02
2023-02-13T02:02:27.716Z,20.02
2023-02-13T02:04:54.190Z,20.02
2023-02-13T02:07:21.566Z,20.01
2023-02-13T02:09:48.957Z,20.00
2023-02-13T02:12:54.557Z,20.00
2023-02-13T02:15:21.273Z,20.01
2023-02-13T02:17:47.856Z,19.99
2023-02-13T02:20:29.795Z,19.98
2023-02-13T02:23:16.638Z,19.99
2023-02-13T02:26:01.021Z,19.98
2023-02-13T02:28:46.442Z,19.98
2023-02-13T02:31:31.595Z,19.98
2023-02-13T02:34:06.060Z,19.96
2023-02-13T02:36:52.692Z,19.97
2023-02-13T02:39:23.740Z,19.97
2023-02-13T02:42:04.529Z,19.95
2023-02-13T02:44:40.058Z,19.95
2023-02-13T02:47:29.173Z,19.95
2023-02-13T02:49:58.997Z,19.94
2023-02-13T02:52:31.044Z,19.94
2023-02-13T02:55:07.129Z,19.92
2023-02-13T02:58:00.488Z,19.94
2023-02-13T03:00:45.639Z,19.93
2023-02-13T03:03:31.985Z,19.93
2023-02-13T03:06:10.510Z,19.92
2023-02-13T03:08:59.803Z,19.92
2023-02-13T03:11:46.619Z,19.92
2023-02-13T03:14:13.590Z,19.91
2023-02-13T03:16:58.513Z,19.91
2023-02-13T03:19:49.738Z,19.90
2023-02-13T03:22:27.999Z,19.89
2023-02-13T03:25:04.526Z,19.90
2023-02-13T03:28:01.857Z,19.88
2023-02-13T03:30:28.185Z,19.89
2023-02-13T03:32:54.452Z,19.88
2023-02-13T03:36:08.696Z,19.87
2023-02-13T03:38:41.070Z,19.88
2023-02-13T03:41:20.139Z,19.88
2023-02-13T03:43:52.676Z,19.90
2023-02-13T03:46:19.074Z,19.92
2023-02-13T03:49:04.225Z,19.94
2023-02-13T03:51:35.011Z,19.96
2023-02-13T03:54:01.994Z,19.97
2023-02-13T03:56:47.177Z,19.99
2023-02-13T03:59:23.076Z,20.00
2023-02-13T04:01:51.644Z,20.00
2023-02-13T04:04:24.215Z,20.00
2023-02-13T04:06:56.225Z,20.01
2023-02-13T04:09:22.937Z,20.00
2023-02-13T04:12:02.298Z,20.00
2023-02-13T04:14:30.192Z,20.00
2023-02-13T04:16:57.813Z,20.02
2023-02-13T04:19:24.945Z,20.02
2023-02-13T04:21:55.702Z,20.02
2023-02-13T04:24:22.046Z,20.05
2023-02-13T04:26:48.369Z,20.05
2023-02-13T04:29:14.712Z,20.06
2023-02-13T04:31:41.156Z,20.06
2023-02-13T04:34:07.546Z,20.05
2023-02-13T04:36:33.859Z,20.05
2023-02-13T04:39:00.182Z,20.06
2023-02-13T04:41:26.531Z,20.04
2023-02-13T04:43:52.932Z,20.05
2023-02-13T04:46:19.369Z,20.05
2023-02-13T04:48:45.900Z,20.05
2023-02-13T04:51:12.336Z,20.04
2023-02-13T04:53:38.641Z,20.06
2023-02-13T04:56:05.014Z,20.07
2023-02-13T04:58:31.330Z,20.08
2023-02-13T05:00:57.938Z,20.08
2023-02-13T05:03:24.468Z,20.08
2023-02-13T05:05:50.810Z,20.09
2023-02-13T05:08:17.129Z,20.08
2023-02-13T05:10:43.454Z,20.09
2023-02-13T05:13:09.780Z,20.09
2023-02-13T05:15:36.164Z,20.07
2023-02-13T05:18:02.519Z,20.08
2023-02-13T05:20:28.842Z,20.08
2023-02-13T05:23:13.647Z,20.06
2023-02-13T05:25:40.350Z,20.08
2023-02-13T05:28:26.690Z,20.09
2023-02-13T05:30:53.136Z,20.09
2023-02-13T05:33:19.514Z,20.12
2023-02-13T05:35:45.842Z,20.12
2023-02-13T05:38:12.170Z,20.12
2023-02-13T05:40:38.505Z,20.13
2023-02-13T05:43:04.834Z,20.13
2023-02-13T05:45:31.176Z,20.13
2023-02-13T05:47:57.509Z,20.12
2023-02-13T05:50:23.847Z,20.12
2023-02-13T05:52:50.164Z,20.13
2023-02-13T05:55:16.540Z,20.12
2023-02-13T05:57:42.853Z,20.12
2023-02-13T06:00:09.331Z,20.13
2023-02-13T06:02:35.689Z,20.12
2023-02-13T06:05:02.054Z,20.15
2023-02-13T06:07:28.367Z,20.16
2023-02-13T06:09:54.739Z,20.17
2023-02-13T06:12:21.051Z,20.26
2023-02-13T06:14:47.413Z,20.19
2023-02-13T06:17:13.772Z,20.12
2023-02-13T06:19:40.108Z,20.08
2023-02-13T06:22:06.516Z,20.18
2023-02-13T06:24:32.853Z,19.43
2023-02-13T06:26:59.178Z,20.15
2023-02-13T06:29:25.503Z,20.39
2023-02-13T06:31:57.658Z,20.41
2023-02-13T06:34:24.019Z,20.42
2023-02-13T06:36:50.820Z,20.40
2023-02-13T06:39:17.152Z,20.40
2023-02-13T06:41:43.491Z,20.34
2023-02-13T06:44:09.854Z,20.33
2023-02-13T06:46:36.304Z,20.35
2023-02-13T06:49:02.688Z,20.40
2023-02-13T06:51:29.008Z,20.40
2023-02-13T06:53:55.329Z,20.38
2023-02-13T06:56:21.780Z,20.36
2023-02-13T06:58:48.083Z,20.38
2023-02-13T07:01:14.440Z,20.35
2023-02-13T07:03:40.796Z,20.36
2023-02-13T07:06:07.111Z,20.36
2023-02-13T07:08:33.418Z,20.34
2023-02-13T07:10:59.882Z,20.35
2023-02-13T07:13:26.241Z,19.60
2023-02-13T07:15:52.667Z,19.86
2023-02-13T07:18:19.012Z,20.32
2023-02-13T07:20:45.352Z,20.72
2023-02-13T07:23:11.688Z,20.93
2023-02-13T07:25:38.020Z,21.05
2023-02-13T07:28:04.772Z,21.15
2023-02-13T07:30:31.662Z,21.22
2023-02-13T07:32:59.176Z,21.32
2023-02-13T07:35:25.524Z,21.38
2023-02-13T07:37:52.997Z,21.44
2023-02-13T07:40:19.328Z,21.50
2023-02-13T07:42:45.665Z,21.56
2023-02-13T07:45:12.082Z,21.58
2023-02-13T07:47:38.411Z,21.55
2023-02-13T07:50:06.102Z,21.50
2023-02-13T07:52:33.206Z,21.44
2023-02-13T07:54:59.547Z,21.57
2023-02-13T07:57:25.880Z,21.61
2023-02-13T07:59:52.370Z,21.59
2023-02-13T08:02:18.722Z,21.63
2023-02-13T08:04:47.738Z,21.65
2023-02-13T08:07:14.645Z,21.60
2023-02-13T08:09:59.743Z,20.90
2023-02-13T08:12:26.096Z,20.63
2023-02-13T08:14:53.117Z,20.67
2023-02-13T08:17:19.440Z,20.70
2023-02-13T08:19:45.820Z,20.72
2023-02-13T08:22:12.151Z,20.74
2023-02-13T08:24:38.471Z,20.77
2023-02-13T08:27:04.805Z,20.75
2023-02-13T08:29:31.119Z,20.77
2023-02-13T08:31:57.544Z,20.76
2023-02-13T08:34:23.901Z,20.74
2023-02-13T08:36:50.233Z,20.75
2023-02-13T08:39:16.550Z,20.74
2023-02-13T08:41:43.470Z,20.74
2023-02-13T08:44:10.108Z,20.75
2023-02-13T08:46:36.456Z,20.74
2023-02-13T08:49:02.804Z,20.73
2023-02-13T08:51:29.168Z,20.72
2023-02-13T08:53:55.516Z,20.87
2023-02-13T08:56:21.845Z,20.95
2023-02-13T08:58:48.603Z,21.06
2023-02-13T09:01:14.987Z,21.09
2023-02-13T09:03:41.371Z,21.11
2023-02-13T09:06:07.734Z,21.20
2023-02-13T09:08:37.086Z,21.15
2023-02-13T09:11:03.856Z,21.08
2023-02-13T09:13:30.374Z,20.87
2023-02-13T09:16:00.386Z,20.92
2023-02-13T09:18:27.096Z,20.97
2023-02-13T09:21:03.346Z,20.87
2023-02-13T09:23:32.868Z,20.97
2023-02-13T09:26:00.367Z,21.12
2023-02-13T09:28:26.773Z,21.19
2023-02-13T09:30:53.275Z,21.26
2023-02-13T09:33:19.771Z,21.36
2023-02-13T09:35:46.167Z,21.33
2023-02-13T09:38:12.730Z,21.21
2023-02-13T09:40:44.952Z,21.14
2023-02-13T09:43:13.199Z,21.21
2023-02-13T09:45:39.526Z,21.13
2023-02-13T09:48:05.905Z,20.85
2023-02-13T09:50:33.379Z,20.74
2023-02-13T09:52:59.757Z,20.59
2023-02-13T09:55:32.019Z,20.39
2023-02-13T09:58:10.457Z,20.65
2023-02-13T10:00:40.404Z,20.82
2023-02-13T10:03:21.424Z,20.95
2023-02-13T10:05:50.143Z,20.97
2023-02-13T10:08:19.460Z,21.00
2023-02-13T10:10:52.915Z,20.99
2023-02-13T10:13:19.183Z,21.13
2023-02-13T10:15:49.710Z,21.14
2023-02-13T10:18:16.844Z,21.17
2023-02-13T10:20:47.670Z,21.17
2023-02-13T10:23:22.291Z,21.27
2023-02-13T10:25:57.396Z,21.26
2023-02-13T10:28:30.089Z,21.26
2023-02-13T10:30:56.895Z,21.30
2023-02-13T10:33:25.736Z,21.26
2023-02-13T10:35:54.570Z,21.24
2023-02-13T10:38:21.455Z,21.41
2023-02-13T10:40:50.693Z,21.47
2023-02-13T10:43:18.281Z,21.50
2023-02-13T10:45:49.159Z,21.63
2023-02-13T10:56:26.024Z,21.30
2023-02-13T10:59:02.265Z,21.21
2023-02-13T11:01:33.264Z,21.19
2023-02-13T11:04:07.516Z,21.38
2023-02-13T11:06:35.262Z,21.38
2023-02-13T11:09:01.588Z,21.44
2023-02-13T11:11:28.435Z,21.46
2023-02-13T11:14:07.290Z,21.50
2023-02-13T11:17:02.895Z,21.52
2023-02-13T11:19:47.821Z,21.49
2023-02-13T11:22:15.021Z,21.42
2023-02-13T11:24:50.882Z,21.31
2023-02-13T11:27:17.213Z,21.29
2023-02-13T11:29:56.875Z,21.29
2023-02-13T11:32:23.914Z,21.14
2023-02-13T11:34:51.112Z,21.25
2023-02-13T11:37:18.775Z,21.23
2023-02-13T11:39:45.460Z,21.15
2023-02-13T11:42:15.580Z,21.39
2023-02-13T11:44:42.123Z,21.39
2023-02-13T11:47:08.481Z,21.39
2023-02-13T11:49:35.844Z,21.48
2023-02-13T11:52:06.196Z,21.50
2023-02-13T11:54:36.717Z,21.51
2023-02-13T11:57:23.491Z,21.49
2023-02-13T11:59:50.591Z,21.46
2023-02-13T12:02:18.022Z,21.44
2023-02-13T12:04:44.421Z,21.46
2023-02-13T12:07:37.052Z,21.44
2023-02-13T12:10:06.177Z,21.45
2023-02-13T12:12:34.038Z,21.48
2023-02-13T12:15:01.295Z,21.46
2023-02-13T12:17:31.871Z,21.47
2023-02-13T12:19:58.828Z,21.69
2023-02-13T12:22:51.303Z,21.74
2023-02-13T12:25:26.363Z,21.92
2023-02-13T12:28:11.183Z,22.21
2023-02-13T12:30:44.589Z,22.31
2023-02-13T12:33:34.053Z,21.96
2023-02-13T12:36:12.518Z,21.87
2023-02-13T12:38:52.532Z,21.82
2023-02-13T12:41:19.968Z,21.81
2023-02-13T12:43:49.411Z,21.80
2023-02-13T12:46:34.537Z,21.91
2023-02-13T12:49:04.581Z,21.94
2023-02-13T12:51:31.660Z,21.96
2023-02-13T12:54:04.916Z,21.97
2023-02-13T12:56:52.401Z,22.01
2023-02-13T12:59:29.205Z,22.03
2023-02-13T13:02:00.448Z,22.01
2023-02-13T13:04:36.681Z,22.03
2023-02-13T13:07:18.202Z,21.98
2023-02-13T13:09:59.854Z,22.03
2023-02-13T13:12:34.957Z,22.06
2023-02-13T13:15:05.472Z,22.07
2023-02-13T13:17:35.094Z,22.09
2023-02-13T13:20:15.940Z,22.10
2023-02-13T13:22:44.218Z,22.03
2023-02-13T13:25:12.848Z,21.91
2023-02-13T13:27:44.240Z,21.89
2023-02-13T13:30:29.794Z,21.80
2023-02-13T13:33:02.868Z,21.92
2023-02-13T13:35:29.190Z,21.98
2023-02-13T13:38:06.425Z,21.98
2023-02-13T13:40:59.483Z,22.06
2023-02-13T13:43:41.300Z,22.04
2023-02-13T13:46:10.602Z,21.44
2023-02-13T13:48:43.600Z,21.19
2023-02-13T13:51:10.003Z,21.41
2023-02-13T13:53:38.325Z,21.47
2023-02-13T13:56:05.818Z,21.43
2023-02-13T13:58:36.212Z,21.37
2023-02-13T14:01:14.540Z,21.33
2023-02-13T14:03:42.090Z,21.30
2023-02-13T14:06:09.472Z,21.30
2023-02-13T14:08:41.842Z,21.28
2023-02-13T14:11:24.936Z,21.28
2023-02-13T14:13:51.273Z,21.27
2023-02-13T14:16:36.100Z,21.26
2023-02-13T14:19:02.423Z,21.49
2023-02-13T14:21:28.777Z,21.62
2023-02-13T14:23:57.271Z,21.74
2023-02-13T14:26:37.094Z,22.00
2023-02-13T14:29:22.618Z,22.09
2023-02-13T14:32:05.503Z,22.13
2023-02-13T14:34:32.769Z,22.15
2023-02-13T14:37:05.124Z,22.15
2023-02-13T14:39:32.166Z,22.14
2023-02-13T14:41:59.272Z,22.15
2023-02-13T14:44:32.632Z,22.08
2023-02-13T14:47:00.302Z,22.04
2023-02-13T14:49:30.344Z,22.04
2023-02-13T14:51:57.393Z,22.08
2023-02-13T14:54:26.281Z,22.09
2023-02-13T14:56:53.319Z,22.15
2023-02-13T14:59:22.839Z,22.25
2023-02-13T15:02:09.271Z,22.31
2023-02-13T15:04:38.762Z,22.30
2023-02-13T15:07:05.130Z,22.27
2023-02-13T15:09:32.966Z,22.26
2023-02-13T15:11:59.569Z,22.27
2023-02-13T15:14:33.311Z,22.32
2023-02-13T15:17:02.013Z,22.31
2023-02-13T15:19:28.457Z,22.44
2023-02-13T15:21:55.957Z,22.20
2023-02-13T15:24:25.217Z,22.31
2023-02-13T15:26:58.896Z,22.31
2023-02-13T15:29:32.945Z,22.29
2023-02-13T15:32:17.263Z,22.32
2023-02-13T15:34:45.921Z,22.26
2023-02-13T15:37:20.085Z,22.23
2023-02-13T15:39:46.433Z,22.25
2023-02-13T15:42:13.062Z,22.25
2023-02-13T15:44:39.764Z,22.20
2023-02-13T15:47:07.499Z,22.12
2023-02-13T15:49:39.979Z,21.67
2023-02-13T15:52:13.448Z,21.75
2023-02-13T15:54:46.774Z,21.60
2023-02-13T15:57:13.168Z,21.75
2023-02-13T15:59:39.597Z,22.10
2023-02-13T16:02:06.750Z,22.17
2023-02-13T16:04:33.124Z,22.21
2023-02-13T16:06:59.642Z,22.10
2023-02-13T16:09:31.841Z,21.53
2023-02-13T16:12:16.556Z,21.37
2023-02-13T16:14:44.825Z,21.60
2023-02-13T16:17:16.852Z,21.67
2023-02-13T16:19:59.902Z,21.70
2023-02-13T16:22:28.434Z,21.69
2023-02-13T16:24:55.704Z,21.70
2023-02-13T16:27:23.773Z,21.67
2023-02-13T16:29:55.436Z,21.77
2023-02-13T16:32:26.709Z,21.88
2023-02-13T16:34:53.062Z,21.95
2023-02-13T16:37:26.744Z,22.21
2023-02-13T16:39:53.090Z,22.29
2023-02-13T16:42:19.540Z,22.35
2023-02-13T16:44:45.904Z,22.26
2023-02-13T16:47:24.408Z,22.15
2023-02-13T16:49:52.244Z,22.14
2023-02-13T16:52:18.972Z,22.14
2023-02-13T16:54:48.355Z,22.14
2023-02-13T16:57:14.610Z,22.12
2023-02-13T16:59:49.341Z,22.11
2023-02-13T17:02:25.408Z,22.12
2023-02-13T17:04:52.915Z,22.14
2023-02-13T17:07:29.207Z,22.08
2023-02-13T17:09:56.460Z,22.14
2023-02-13T17:12:22.796Z,22.20
2023-02-13T17:14:49.123Z,22.21
2023-02-13T17:17:17.169Z,22.13
2023-02-13T17:19:43.497Z,22.12
2023-02-13T17:22:16.537Z,22.14
2023-02-13T17:24:42.933Z,22.15
2023-02-13T17:27:09.574Z,22.17
2023-02-13T17:29:35.888Z,22.22
2023-02-13T17:32:02.267Z,22.21
2023-02-13T17:34:28.635Z,22.22
2023-02-13T17:36:54.955Z,22.25
2023-02-13T17:39:21.266Z,22.24
2023-02-13T17:41:47.614Z,22.24
2023-02-13T17:44:13.988Z,22.27
2023-02-13T17:46:40.350Z,22.28
2023-02-13T17:49:06.715Z,22.32
2023-02-13T17:51:33.033Z,22.36
2023-02-13T17:53:59.355Z,22.34
2023-02-13T17:56:25.682Z,21.88
2023-02-13T17:58:51.993Z,21.07
2023-02-13T18:01:18.378Z,15.03
2023-02-13T18:03:44.730Z,19.31
2023-02-13T18:06:11.724Z,20.28
2023-02-13T18:08:38.061Z,20.47
2023-02-13T18:11:09.256Z,20.79
2023-02-13T18:13:35.589Z,20.96
2023-02-13T18:16:06.908Z,21.03
2023-02-13T18:18:33.260Z,21.13
2023-02-13T18:20:59.808Z,21.15
2023-02-13T18:23:26.348Z,21.19
2023-02-13T18:25:52.742Z,21.19
2023-02-13T18:28:19.077Z,21.23
2023-02-13T18:30:45.478Z,21.20
2023-02-13T18:33:11.914Z,21.22
2023-02-13T18:35:38.241Z,21.05
2023-02-13T18:38:04.568Z,21.02
2023-02-13T18:40:30.882Z,20.87
2023-02-13T18:42:57.356Z,20.83
2023-02-13T18:45:23.680Z,20.82
2023-02-13T18:47:50.076Z,20.77
2023-02-13T18:50:16.429Z,20.73
2023-02-13T18:52:42.811Z,19.74
2023-02-13T18:55:09.360Z,19.30
2023-02-13T18:57:35.712Z,18.96
2023-02-13T19:00:02.448Z,18.89
2023-02-13T19:02:30.297Z,18.90
2023-02-13T19:04:56.703Z,19.03
2023-02-13T19:07:23.028Z,19.16
2023-02-13T19:09:49.424Z,19.89
2023-02-13T19:12:15.790Z,20.40
2023-02-13T19:14:42.181Z,20.54
2023-02-13T19:17:09.302Z,20.57
2023-02-13T19:19:35.763Z,20.67
2023-02-13T19:22:02.163Z,20.74
2023-02-13T19:24:28.485Z,20.73
2023-02-13T19:26:54.807Z,20.67
2023-02-13T19:29:21.125Z,20.68
2023-02-13T19:31:47.524Z,20.69
2023-02-13T19:34:13.990Z,20.56
2023-02-13T19:36:40.323Z,20.66
2023-02-13T19:39:08.879Z,20.68
2023-02-13T19:41:35.953Z,20.58
2023-02-13T19:44:02.320Z,20.66
2023-02-13T19:46:29.270Z,20.70
2023-02-13T19:48:55.640Z,20.72
2023-02-13T19:51:24.069Z,20.73
2023-02-13T19:53:54.769Z,20.72
2023-02-13T19:56:21.089Z,20.71
2023-02-13T19:58:47.420Z,20.71
2023-02-13T20:01:16.031Z,20.69
2023-02-13T20:03:42.396Z,20.68
2023-02-13T20:06:09.748Z,20.68
2023-02-13T20:08:36.082Z,20.67
2023-02-13T20:11:02.412Z,20.65
2023-02-13T20:13:28.778Z,20.63
2023-02-13T20:15:55.225Z,20.62
2023-02-13T20:18:21.684Z,20.62
2023-02-13T20:20:48.007Z,20.60
2023-02-13T20:23:16.856Z,20.61
2023-02-13T20:25:43.275Z,20.64
2023-02-13T20:28:11.444Z,20.62
2023-02-13T20:30:44.522Z,20.63
2023-02-13T20:33:10.921Z,20.62
2023-02-13T20:35:37.266Z,20.60
2023-02-13T20:38:03.885Z,20.60
2023-02-13T20:40:30.220Z,20.57
2023-02-13T20:42:56.564Z,20.56
2023-02-13T20:45:23.048Z,20.55
2023-02-13T20:47:49.676Z,20.60
2023-02-13T20:50:16.049Z,20.61
2023-02-13T20:52:42.412Z,20.60
2023-02-13T20:55:08.768Z,20.60
2023-02-13T20:57:35.419Z,20.59
2023-02-13T21:00:02.018Z,20.60
2023-02-13T21:02:28.371Z,20.61
2023-02-13T21:04:54.747Z,20.61
2023-02-13T21:07:21.152Z,20.60
2023-02-13T21:09:47.490Z,20.61
2023-02-13T21:12:14.414Z,20.60
2023-02-13T21:14:41.041Z,20.60
2023-02-13T21:17:07.386Z,20.60
2023-02-13T21:19:33.737Z,20.58
2023-02-13T21:22:11.910Z,20.58
2023-02-13T21:24:38.673Z,20.58
2023-02-13T21:27:04.988Z,20.57
2023-02-13T21:29:31.350Z,20.57
2023-02-13T21:31:57.718Z,20.57
2023-02-13T21:34:24.088Z,20.56
2023-02-13T21:36:50.417Z,20.57
2023-02-13T21:39:16.756Z,20.58
2023-02-13T21:41:43.650Z,20.56
2023-02-13T21:44:10.741Z,20.57
2023-02-13T21:46:37.213Z,20.56
2023-02-13T21:49:04.379Z,20.56
2023-02-13T21:51:31.634Z,20.56
2023-02-13T21:53:57.994Z,20.58
2023-02-13T21:56:25.238Z,20.59
2023-02-13T21:58:51.612Z,20.59
2023-02-13T22:01:25.811Z,20.57
2023-02-13T22:03:52.898Z,20.53
2023-02-13T22:06:19.852Z,20.53
2023-02-13T22:08:46.269Z,20.49
2023-02-13T22:11:12.584Z,20.49
2023-02-13T22:13:41.851Z,20.48
2023-02-13T22:16:11.913Z,20.47
2023-02-13T22:18:38.880Z,20.47
2023-02-13T22:21:08.567Z,20.46
2023-02-13T22:23:36.717Z,20.44
2023-02-13T22:26:03.534Z,20.45
2023-02-13T22:28:29.905Z,20.45
2023-02-13T22:30:56.355Z,20.44
2023-02-13T22:33:22.761Z,20.44
2023-02-13T22:35:49.091Z,20.41
2023-02-13T22:38:15.408Z,20.41
2023-02-13T22:40:41.740Z,20.41
2023-02-13T22:43:08.065Z,20.41
2023-02-13T22:45:35.027Z,20.40
2023-02-13T22:48:01.363Z,20.40
2023-02-13T22:50:27.696Z,20.39
2023-02-13T22:52:54.023Z,20.38
2023-02-13T22:55:20.340Z,20.36
2023-02-13T22:57:47.344Z,20.37
2023-02-13T23:00:13.947Z,20.35
2023-02-13T23:02:40.316Z,20.35
2023-02-13T23:05:06.670Z,20.39
2023-02-13T23:07:32.993Z,20.42
2023-02-13T23:09:59.350Z,20.42
2023-02-13T23:12:39.047Z,20.40
2023-02-13T23:15:12.178Z,20.38
2023-02-13T23:17:57.097Z,20.35
2023-02-13T23:20:23.513Z,20.33
2023-02-13T23:22:49.842Z,20.32
2023-02-13T23:25:16.229Z,20.32
2023-02-13T23:27:42.561Z,20.32
2023-02-13T23:30:09.112Z,20.31
2023-02-13T23:32:35.445Z,20.30
2023-02-13T23:35:01.792Z,20.28
2023-02-13T23:37:28.125Z,20.28
2023-02-13T23:39:54.459Z,20.28
2023-02-13T23:42:20.771Z,20.27
2023-02-13T23:44:47.126Z,20.27
2023-02-13T23:47:13.452Z,20.26
2023-02-13T23:49:39.788Z,20.25
2023-02-13T23:52:06.123Z,20.25
2023-02-13T23:54:32.461Z,20.25
2023-02-13T23:56:58.813Z,20.24
2023-02-13T23:59:25.176Z,20.23
